createdAt,value
2018-03-24T00:00:35.707Z,18.30
2018-03-24T00:03:03.240Z,16.83
2018-03-24T00:05:30.859Z,16.57
2018-03-24T00:07:59.159Z,17.13
2018-03-24T00:10:26.796Z,18.33
2018-03-24T00:12:54.401Z,17.37
2018-03-24T00:15:22.682Z,15.97
2018-03-24T00:17:50.931Z,18.83
2018-03-24T00:20:18.945Z,16.43
2018-03-24T00:22:48.133Z,17.83
2018-03-24T00:25:15.658Z,17.50
2018-03-24T00:27:43.224Z,17.07
2018-03-24T00:30:11.694Z,17.63
2018-03-24T00:32:39.949Z,16.77
2018-03-24T00:35:07.473Z,17.00
2018-03-24T00:37:34.967Z,16.30
2018-03-24T00:40:02.488Z,17.40
2018-03-24T00:42:30.786Z,15.90
2018-03-24T00:44:59.134Z,16.57
2018-03-24T00:47:26.836Z,14.93
2018-03-24T00:49:54.428Z,15.70
2018-03-24T00:52:21.953Z,15.80
2018-03-24T00:54:49.477Z,14.70
2018-03-24T00:57:17.008Z,15.73
2018-03-24T00:59:44.622Z,14.93
2018-03-24T01:02:12.997Z,14.40
2018-03-24T01:04:41.256Z,14.53
2018-03-24T01:07:08.908Z,13.70
2018-03-24T01:09:36.459Z,14.77
2018-03-24T01:12:04.072Z,14.10
2018-03-24T01:14:31.645Z,14.67
2018-03-24T01:16:59.146Z,14.93
2018-03-24T01:19:27.407Z,14.30
2018-03-24T01:21:54.915Z,13.13
2018-03-24T01:24:22.416Z,13.50
2018-03-24T01:26:49.971Z,15.17
2018-03-24T01:29:17.497Z,14.83
2018-03-24T01:31:45.096Z,14.87
2018-03-24T01:34:12.702Z,14.40
2018-03-24T01:36:40.195Z,14.50
2018-03-24T01:39:07.751Z,14.30
2018-03-24T01:41:35.239Z,14.60
2018-03-24T01:44:03.765Z,12.43
2018-03-24T01:46:32.096Z,13.70
2018-03-24T01:48:59.594Z,13.80
2018-03-24T01:51:27.137Z,14.20
2018-03-24T01:53:54.830Z,14.73
2018-03-24T01:56:22.362Z,13.93
2018-03-24T01:58:50.032Z,14.20
2018-03-24T02:01:17.581Z,14.27
2018-03-24T02:03:45.857Z,15.27
2018-03-24T02:06:13.373Z,14.07
2018-03-24T02:08:40.875Z,14.90
2018-03-24T02:11:08.619Z,13.60
2018-03-24T02:13:36.113Z,14.10
2018-03-24T02:16:03.713Z,15.57
2018-03-24T02:18:31.436Z,13.57
2018-03-24T02:20:59.341Z,13.33
2018-03-24T02:23:26.850Z,13.00
2018-03-24T02:25:55.243Z,14.00
2018-03-24T02:28:22.885Z,13.37
2018-03-24T02:30:50.667Z,12.40
2018-03-24T02:33:18.156Z,11.57
2018-03-24T02:35:45.682Z,13.80
2018-03-24T02:38:13.192Z,13.27
2018-03-24T02:40:40.828Z,12.87
2018-03-24T02:43:08.352Z,11.10
2018-03-24T02:45:36.613Z,11.20
2018-03-24T02:48:04.285Z,13.07
2018-03-24T02:50:31.906Z,11.20
2018-03-24T02:52:59.441Z,11.27
2018-03-24T02:55:26.970Z,11.53
2018-03-24T02:57:54.616Z,12.70
2018-03-24T03:00:22.138Z,12.40
2018-03-24T03:02:49.814Z,10.90
2018-03-24T03:05:17.380Z,12.90
2018-03-24T03:07:45.798Z,11.10
2018-03-24T03:10:13.340Z,12.53
2018-03-24T03:12:40.859Z,11.90
2018-03-24T03:15:09.140Z,12.40
2018-03-24T03:17:37.421Z,11.60
2018-03-24T03:20:05.704Z,12.80
2018-03-24T03:22:34.002Z,12.13
2018-03-24T03:25:01.521Z,11.07
2018-03-24T03:27:29.036Z,12.63
2018-03-24T03:29:57.320Z,12.17
2018-03-24T03:32:26.058Z,10.77
2018-03-24T03:34:53.625Z,12.93
2018-03-24T03:37:21.156Z,11.63
2018-03-24T03:39:48.967Z,12.20
2018-03-24T03:42:16.483Z,12.73
2018-03-24T03:44:44.024Z,11.57
2018-03-24T03:47:11.554Z,11.27
2018-03-24T03:49:39.970Z,13.17
2018-03-24T03:52:07.482Z,12.67
2018-03-24T03:54:35.094Z,12.33
2018-03-24T03:57:03.367Z,12.77
2018-03-24T03:59:30.887Z,13.50
2018-03-24T04:01:58.381Z,12.53
2018-03-24T04:04:25.899Z,12.77
2018-03-24T04:06:54.153Z,12.40
2018-03-24T04:09:21.680Z,12.60
2018-03-24T04:11:49.291Z,12.40
2018-03-24T04:14:16.833Z,12.77
2018-03-24T04:16:44.425Z,14.17
2018-03-24T04:19:12.124Z,13.10
2018-03-24T04:21:40.407Z,11.77
2018-03-24T04:24:08.717Z,12.77
2018-03-24T04:26:36.998Z,12.87
2018-03-24T04:29:04.491Z,13.50
2018-03-24T04:31:31.997Z,12.20
2018-03-24T04:33:59.705Z,13.03
2018-03-24T04:36:27.225Z,12.13
2018-03-24T04:38:54.895Z,12.97
2018-03-24T04:41:22.423Z,12.67
2018-03-24T04:43:50.013Z,13.80
2018-03-24T04:46:18.287Z,13.07
2018-03-24T04:48:46.556Z,13.90
2018-03-24T04:51:14.054Z,12.17
2018-03-24T04:53:42.427Z,13.40
2018-03-24T04:56:10.936Z,12.80
2018-03-24T04:58:39.223Z,12.33
2018-03-24T05:01:07.517Z,12.53
2018-03-24T05:03:35.914Z,13.20
2018-03-24T05:06:04.183Z,12.20
2018-03-24T05:08:31.706Z,13.10
2018-03-24T05:10:59.254Z,13.03
2018-03-24T05:13:26.892Z,12.13
2018-03-24T05:15:54.484Z,12.97
2018-03-24T05:18:22.784Z,12.33
2018-03-24T05:20:50.290Z,12.97
2018-03-24T05:23:17.794Z,13.27
2018-03-24T05:25:45.390Z,12.63
2018-03-24T05:28:13.677Z,13.50
2018-03-24T05:30:41.954Z,14.13
2018-03-24T05:33:10.213Z,13.77
2018-03-24T05:35:37.822Z,13.53
2018-03-24T05:38:06.230Z,13.63
2018-03-24T05:40:33.751Z,13.47
2018-03-24T05:43:01.362Z,13.27
2018-03-24T05:45:29.641Z,13.23
2018-03-24T05:47:57.892Z,14.43
2018-03-24T05:50:25.464Z,13.80
2018-03-24T05:52:52.950Z,14.10
2018-03-24T05:55:20.558Z,13.47
2018-03-24T05:57:48.453Z,13.80
2018-03-24T06:00:15.954Z,12.93
2018-03-24T06:02:43.548Z,13.70
2018-03-24T06:05:11.130Z,12.40
2018-03-24T06:07:38.740Z,13.80
2018-03-24T06:10:06.425Z,14.13
2018-03-24T06:12:34.180Z,13.57
2018-03-24T06:15:02.176Z,13.00
2018-03-24T06:17:29.700Z,13.97
2018-03-24T06:19:57.314Z,12.63
2018-03-24T06:22:25.089Z,13.30
2018-03-24T06:24:52.632Z,14.73
2018-03-24T06:27:20.925Z,12.93
2018-03-24T06:29:48.587Z,15.20
2018-03-24T06:32:17.143Z,16.13
2018-03-24T06:34:44.863Z,12.87
2018-03-24T06:37:15.734Z,12.30
2018-03-24T06:39:43.265Z,12.67
2018-03-24T06:42:11.523Z,13.77
2018-03-24T06:44:39.158Z,13.20
2018-03-24T06:47:07.513Z,12.10
2018-03-24T06:49:35.112Z,14.37
2018-03-24T06:52:03.378Z,13.63
2018-03-24T06:54:30.914Z,14.10
2018-03-24T06:56:58.421Z,13.80
2018-03-24T06:59:26.731Z,12.60
2018-03-24T07:01:55.125Z,12.03
2018-03-24T07:04:23.459Z,13.50
2018-03-24T07:06:50.987Z,13.43
2018-03-24T07:09:19.251Z,14.50
2018-03-24T07:11:47.002Z,13.60
2018-03-24T07:14:14.617Z,13.90
2018-03-24T07:16:43.028Z,14.33
2018-03-24T07:19:10.595Z,13.60
2018-03-24T07:21:38.134Z,14.50
2018-03-24T07:24:06.420Z,13.27
2018-03-24T07:26:33.938Z,15.37
2018-03-24T07:29:01.429Z,13.50
2018-03-24T07:31:28.956Z,16.43
2018-03-24T07:33:57.264Z,13.63
2018-03-24T07:36:24.769Z,14.80
2018-03-24T07:38:52.380Z,14.13
2018-03-24T07:41:20.742Z,12.70
2018-03-24T07:43:48.310Z,15.00
2018-03-24T07:46:15.798Z,13.53
2018-03-24T07:48:43.406Z,14.80
2018-03-24T07:51:10.977Z,13.63
2018-03-24T07:53:38.504Z,13.73
2018-03-24T07:56:06.840Z,13.90
2018-03-24T07:58:34.422Z,13.80
2018-03-24T08:01:01.941Z,13.10
2018-03-24T08:03:30.368Z,11.53
2018-03-24T08:05:57.899Z,12.40
2018-03-24T08:08:28.042Z,12.43
2018-03-24T08:10:56.486Z,13.40
2018-03-24T08:13:23.991Z,11.47
2018-03-24T08:15:52.298Z,12.30
2018-03-24T08:18:20.573Z,12.93
2018-03-24T08:20:48.140Z,12.10
2018-03-24T08:23:15.643Z,12.63
2018-03-24T08:25:43.918Z,12.30
2018-03-24T08:28:12.226Z,12.10
2018-03-24T08:30:39.728Z,11.37
2018-03-24T08:33:07.261Z,11.30
2018-03-24T08:35:35.520Z,11.37
2018-03-24T08:38:03.031Z,12.90
2018-03-24T08:40:30.633Z,11.30
2018-03-24T08:42:58.867Z,13.03
2018-03-24T08:45:27.136Z,12.20
2018-03-24T08:47:54.777Z,12.17
2018-03-24T08:50:22.415Z,12.00
2018-03-24T08:52:50.489Z,12.30
2018-03-24T08:55:18.080Z,12.10
2018-03-24T08:57:45.714Z,11.83
2018-03-24T09:00:14.830Z,11.60
2018-03-24T09:02:43.209Z,12.03
2018-03-24T09:05:10.872Z,11.80
2018-03-24T09:07:38.373Z,12.73
2018-03-24T09:10:06.664Z,12.17
2018-03-24T09:12:34.285Z,12.53
2018-03-24T09:15:02.625Z,13.27
2018-03-24T09:17:30.884Z,11.50
2018-03-24T09:19:58.427Z,13.33
2018-03-24T09:22:25.930Z,12.23
2018-03-24T09:24:53.440Z,13.10
2018-03-24T09:27:21.029Z,13.13
2018-03-24T09:29:48.550Z,12.60
2018-03-24T09:32:16.162Z,13.83
2018-03-24T09:34:43.867Z,12.97
2018-03-24T09:37:11.381Z,13.87
2018-03-24T09:39:39.664Z,11.87
2018-03-24T09:42:07.964Z,13.80
2018-03-24T09:44:36.369Z,12.80
2018-03-24T09:47:03.955Z,13.00
2018-03-24T09:49:31.459Z,13.03
2018-03-24T09:51:58.988Z,14.30
2018-03-24T09:54:26.485Z,14.30
2018-03-24T09:56:54.146Z,14.40
2018-03-24T09:59:21.691Z,13.20
2018-03-24T10:01:49.276Z,13.70
2018-03-24T10:04:16.805Z,14.40
2018-03-24T10:06:44.310Z,13.93
2018-03-24T10:09:11.852Z,13.80
2018-03-24T10:11:39.358Z,13.80
2018-03-24T10:14:07.030Z,13.50
2018-03-24T10:16:34.541Z,12.37
2018-03-24T10:19:02.159Z,12.70
2018-03-24T10:21:50.114Z,12.07
2018-03-24T10:24:24.405Z,12.83
2018-03-24T10:26:51.926Z,12.70
2018-03-24T10:29:19.412Z,13.17
2018-03-24T10:31:46.947Z,13.17
2018-03-24T10:34:15.221Z,13.50
2018-03-24T10:36:42.761Z,14.83
2018-03-24T10:39:10.320Z,14.50
2018-03-24T10:41:37.938Z,12.30
2018-03-24T10:44:06.301Z,12.73
2018-03-24T10:46:33.809Z,13.60
2018-03-24T10:49:02.114Z,12.67
2018-03-24T10:51:30.492Z,13.43
2018-03-24T10:53:58.789Z,11.83
2018-03-24T10:56:26.311Z,12.57
2018-03-24T10:58:53.894Z,13.20
2018-03-24T11:01:23.730Z,13.00
2018-03-24T11:03:52.059Z,12.33
2018-03-24T11:06:19.612Z,11.70
2018-03-24T11:08:47.913Z,12.10
2018-03-24T11:11:15.475Z,13.13
2018-03-24T11:13:42.956Z,14.30
2018-03-24T11:16:10.475Z,13.17
2018-03-24T11:18:37.966Z,12.60
2018-03-24T11:21:05.475Z,13.10
2018-03-24T11:23:33.024Z,13.50
2018-03-24T11:26:01.295Z,13.50
2018-03-24T11:28:29.641Z,11.63
2018-03-24T11:30:57.228Z,12.70
2018-03-24T11:33:24.820Z,13.63
2018-03-24T11:35:53.120Z,12.13
2018-03-24T11:38:20.677Z,12.10
2018-03-24T11:40:48.181Z,12.17
2018-03-24T11:43:15.724Z,10.90
2018-03-24T11:45:43.248Z,11.70
2018-03-24T11:48:10.819Z,11.97
2018-03-24T11:50:38.435Z,11.70
2018-03-24T11:53:06.029Z,13.13
2018-03-24T11:55:34.295Z,11.83
2018-03-24T11:58:02.624Z,12.63
2018-03-24T12:00:30.196Z,12.70
2018-03-24T12:02:57.768Z,10.73
2018-03-24T12:05:25.323Z,12.03
2018-03-24T12:07:53.637Z,11.77
2018-03-24T12:10:21.283Z,11.27
2018-03-24T12:12:49.728Z,10.70
2018-03-24T12:15:17.372Z,12.70
2018-03-24T12:17:44.906Z,12.27
2018-03-24T12:20:12.591Z,13.03
2018-03-24T12:22:40.848Z,10.90
2018-03-24T12:25:08.380Z,11.60
2018-03-24T12:27:35.935Z,12.70
2018-03-24T12:30:03.515Z,11.60
2018-03-24T12:32:31.096Z,10.90
2018-03-24T12:34:58.625Z,11.30
2018-03-24T12:37:26.208Z,10.83
2018-03-24T12:39:54.630Z,11.27
2018-03-24T12:42:22.899Z,12.10
2018-03-24T12:44:50.403Z,12.07
2018-03-24T12:47:17.943Z,11.60
2018-03-24T12:49:45.535Z,11.60
2018-03-24T12:52:13.221Z,11.10
2018-03-24T12:54:40.971Z,12.13
2018-03-24T12:57:08.504Z,12.57
2018-03-24T12:59:36.123Z,10.73
2018-03-24T13:02:03.715Z,11.73
2018-03-24T13:04:31.378Z,11.57
2018-03-24T13:06:58.928Z,12.10
2018-03-24T13:09:26.453Z,10.47
2018-03-24T13:11:54.763Z,11.53
2018-03-24T13:14:22.300Z,10.03
2018-03-24T13:16:49.838Z,11.10
2018-03-24T13:19:17.531Z,11.87
2018-03-24T13:21:45.051Z,11.23
2018-03-24T13:24:13.338Z,11.27
2018-03-24T13:26:41.652Z,11.40
2018-03-24T13:29:09.198Z,12.00
2018-03-24T13:31:37.545Z,12.30
2018-03-24T13:34:05.152Z,12.40
2018-03-24T13:36:32.882Z,12.07
2018-03-24T13:39:00.571Z,13.20
2018-03-24T13:41:28.234Z,11.23
2018-03-24T13:43:55.751Z,12.40
2018-03-24T13:46:23.362Z,13.67
2018-03-24T13:48:50.916Z,13.07
2018-03-24T13:51:18.436Z,14.10
2018-03-24T13:53:45.945Z,13.63
2018-03-24T13:56:14.278Z,14.50
2018-03-24T13:58:42.030Z,13.97
2018-03-24T14:01:09.564Z,13.30
2018-03-24T14:03:37.858Z,14.80
2018-03-24T14:06:05.470Z,14.70
2018-03-24T14:08:33.042Z,14.23
2018-03-24T14:11:00.573Z,14.27
2018-03-24T14:13:28.102Z,15.40
2018-03-24T14:15:55.833Z,14.83
2018-03-24T14:18:23.509Z,16.20
2018-03-24T14:20:52.397Z,15.80
2018-03-24T14:23:20.690Z,16.33
2018-03-24T14:25:48.364Z,16.57
2018-03-24T14:28:15.905Z,16.77
2018-03-24T14:30:43.448Z,15.57
2018-03-24T14:33:10.962Z,18.40
2018-03-24T14:35:39.383Z,17.07
2018-03-24T14:38:06.837Z,17.43
2018-03-24T14:40:35.136Z,18.23
2018-03-24T14:43:03.655Z,18.90
2018-03-24T14:45:31.223Z,18.90
2018-03-24T14:47:58.742Z,18.93
2018-03-24T14:50:26.361Z,18.30
2018-03-24T14:52:53.882Z,18.53
2018-03-24T14:55:21.421Z,17.90
2018-03-24T14:57:49.060Z,17.70
2018-03-24T15:00:17.416Z,18.90
2018-03-24T15:02:45.075Z,18.27
2018-03-24T15:05:12.815Z,19.53
2018-03-24T15:07:40.349Z,17.30
2018-03-24T15:10:07.881Z,19.23
2018-03-24T15:12:35.575Z,18.70
2018-03-24T15:15:03.107Z,19.20
2018-03-24T15:17:30.650Z,18.97
2018-03-24T15:19:58.928Z,19.87
2018-03-24T15:22:26.473Z,19.00
2018-03-24T15:24:54.595Z,20.50
2018-03-24T15:27:22.914Z,19.80
2018-03-24T15:30:02.374Z,18.97
2018-03-24T15:32:41.918Z,19.07
2018-03-24T15:35:21.251Z,18.63
2018-03-24T15:37:49.729Z,19.47
2018-03-24T15:40:17.296Z,21.30
2018-03-24T15:42:44.785Z,19.10
2018-03-24T15:45:13.069Z,19.57
2018-03-24T15:47:41.468Z,18.80
2018-03-24T15:50:09.040Z,19.33
2018-03-24T15:52:36.608Z,18.77
2018-03-24T15:55:04.913Z,19.17
2018-03-24T15:57:32.424Z,20.00
2018-03-24T15:59:59.981Z,18.53
2018-03-24T16:02:27.517Z,18.97
2018-03-24T16:04:55.157Z,19.00
2018-03-24T16:07:22.706Z,18.30
2018-03-24T16:09:50.229Z,19.83
2018-03-24T16:12:17.820Z,18.40
2018-03-24T16:14:45.366Z,18.50
2018-03-24T16:17:12.894Z,18.63
2018-03-24T16:19:40.572Z,18.67
2018-03-24T16:22:08.167Z,19.03
2018-03-24T16:24:36.586Z,21.40
2018-03-24T16:27:04.112Z,18.10
2018-03-24T16:29:32.616Z,14.30
2018-03-24T16:32:00.157Z,13.33
2018-03-24T16:34:27.708Z,14.10
2018-03-24T16:36:55.267Z,17.40
2018-03-24T16:39:22.850Z,14.70
2018-03-24T16:41:51.148Z,15.17
2018-03-24T16:44:18.696Z,14.73
2018-03-24T16:46:46.239Z,16.37
2018-03-24T16:49:13.747Z,15.37
2018-03-24T16:51:41.248Z,17.37
2018-03-24T16:54:08.872Z,14.97
2018-03-24T16:56:37.166Z,14.80
2018-03-24T16:59:04.682Z,18.57
2018-03-24T17:01:32.322Z,18.63
2018-03-24T17:03:59.835Z,21.27
2018-03-24T17:06:27.365Z,20.93
2018-03-24T17:08:55.231Z,21.57
2018-03-24T17:11:22.786Z,20.33
2018-03-24T17:13:51.825Z,21.30
2018-03-24T17:16:19.372Z,20.90
2018-03-24T17:18:47.064Z,22.50
2018-03-24T17:21:14.550Z,22.03
2018-03-24T17:23:42.092Z,21.00
2018-03-24T17:26:09.610Z,21.10
2018-03-24T17:28:37.239Z,20.57
2018-03-24T17:31:04.730Z,21.70
2018-03-24T17:33:32.377Z,20.50
2018-03-24T17:35:59.991Z,22.23
2018-03-24T17:38:27.568Z,21.30
2018-03-24T17:40:55.107Z,21.90
2018-03-24T17:43:22.755Z,21.63
2018-03-24T17:45:51.059Z,22.17
2018-03-24T17:48:18.601Z,22.10
2018-03-24T17:50:46.128Z,22.43
2018-03-24T17:53:13.663Z,22.30
2018-03-24T17:55:42.075Z,23.40
2018-03-24T17:58:10.331Z,21.70
2018-03-24T18:00:38.623Z,22.80
2018-03-24T18:03:07.033Z,21.93
2018-03-24T18:05:34.567Z,23.03
2018-03-24T18:08:02.108Z,23.20
2018-03-24T18:10:29.650Z,23.30
2018-03-24T18:12:57.207Z,24.57
2018-03-24T18:15:25.606Z,25.07
2018-03-24T18:17:53.373Z,24.00
2018-03-24T18:20:21.674Z,23.60
2018-03-24T18:22:49.223Z,24.73
2018-03-24T18:25:17.518Z,23.20
2018-03-24T18:27:46.380Z,23.80
2018-03-24T18:30:13.993Z,24.10
2018-03-24T18:32:42.237Z,25.30
2018-03-24T18:35:10.579Z,24.13
2018-03-24T18:37:38.856Z,23.83
2018-03-24T18:40:07.269Z,26.00
2018-03-24T18:42:34.850Z,26.40
2018-03-24T18:45:02.352Z,24.10
2018-03-24T18:47:29.915Z,25.80
2018-03-24T18:49:57.402Z,25.90
2018-03-24T18:52:24.931Z,25.50
2018-03-24T18:54:52.493Z,26.17
2018-03-24T18:57:20.099Z,27.50
2018-03-24T18:59:47.730Z,26.33
2018-03-24T19:02:15.418Z,24.80
2018-03-24T19:04:42.939Z,25.37
2018-03-24T19:07:11.238Z,25.83
2018-03-24T19:09:38.837Z,25.07
2018-03-24T19:12:06.345Z,25.60
2018-03-24T19:14:33.861Z,26.67
2018-03-24T19:17:02.361Z,26.37
2018-03-24T19:19:29.919Z,25.40
2018-03-24T19:21:58.208Z,26.97
2018-03-24T19:24:26.521Z,26.67
2018-03-24T19:26:54.156Z,25.47
2018-03-24T19:29:21.691Z,24.33
2018-03-24T19:31:49.381Z,25.93
2018-03-24T19:34:16.887Z,27.00
2018-03-24T19:36:44.461Z,25.20
2018-03-24T19:39:11.960Z,27.60
2018-03-24T19:41:39.508Z,24.00
2018-03-24T19:44:07.823Z,24.90
2018-03-24T19:46:35.569Z,24.50
2018-03-24T19:49:03.157Z,25.90
2018-03-24T19:51:30.798Z,25.90
2018-03-24T19:53:58.409Z,25.87
2018-03-24T19:56:25.929Z,25.80
2018-03-24T19:58:53.525Z,24.00
2018-03-24T20:01:22.033Z,24.33
2018-03-24T20:03:50.008Z,24.17
2018-03-24T20:06:19.253Z,25.07
2018-03-24T20:08:46.790Z,24.70
2018-03-24T20:11:14.325Z,24.80
2018-03-24T20:13:42.606Z,25.60
2018-03-24T20:16:10.500Z,25.03
2018-03-24T20:18:38.068Z,25.13
2018-03-24T20:21:06.237Z,25.53
2018-03-24T20:23:33.846Z,25.60
2018-03-24T20:26:01.472Z,30.00
2018-03-24T20:28:28.981Z,30.07
2018-03-24T20:30:56.526Z,27.40
2018-03-24T20:33:24.027Z,28.93
2018-03-24T20:35:51.586Z,28.63
2018-03-24T20:38:19.373Z,27.00
2018-03-24T20:40:46.946Z,24.80
2018-03-24T20:43:14.489Z,27.30
2018-03-24T20:45:42.107Z,27.60
2018-03-24T20:48:09.608Z,27.37
2018-03-24T20:50:37.185Z,27.17
2018-03-24T20:53:04.694Z,27.83
2018-03-24T20:55:32.241Z,27.07
2018-03-24T20:57:59.752Z,27.70
2018-03-24T21:00:27.346Z,27.70
2018-03-24T21:02:54.955Z,28.50
2018-03-24T21:05:22.534Z,27.57
2018-03-24T21:07:50.210Z,28.40
2018-03-24T21:10:17.780Z,29.77
2018-03-24T21:12:45.278Z,30.73
2018-03-24T21:15:12.779Z,30.20
2018-03-24T21:17:41.121Z,27.73
2018-03-24T21:20:08.646Z,21.37
2018-03-24T21:22:36.199Z,26.53
2018-03-24T21:25:04.546Z,27.40
2018-03-24T21:27:32.099Z,28.03
2018-03-24T21:29:59.617Z,28.73
2018-03-24T21:32:27.177Z,27.97
2018-03-24T21:34:54.698Z,28.30
2018-03-24T21:37:22.224Z,28.67
2018-03-24T21:39:50.614Z,26.80
2018-03-24T21:42:19.043Z,26.17
2018-03-24T21:44:46.641Z,28.73
2018-03-24T21:47:14.184Z,27.73
2018-03-24T21:49:41.704Z,28.57
2018-03-24T21:52:09.255Z,26.20
2018-03-24T21:54:36.762Z,26.30
2018-03-24T21:57:04.369Z,27.43
2018-03-24T21:59:31.886Z,25.73
2018-03-24T22:01:59.422Z,27.07
2018-03-24T22:04:26.980Z,24.07
2018-03-24T22:06:54.535Z,25.07
2018-03-24T22:09:22.806Z,27.13
2018-03-24T22:11:51.137Z,26.10
2018-03-24T22:14:18.686Z,25.90
2018-03-24T22:16:46.953Z,25.70
2018-03-24T22:19:14.508Z,25.23
2018-03-24T22:21:42.007Z,25.80
2018-03-24T22:24:09.564Z,23.87
2018-03-24T22:26:37.088Z,24.47
2018-03-24T22:29:04.712Z,24.77
2018-03-24T22:31:32.232Z,25.90
2018-03-24T22:33:59.764Z,24.27
2018-03-24T22:36:28.047Z,25.97
2018-03-24T22:38:55.680Z,24.43
2018-03-24T22:41:23.290Z,25.47
2018-03-24T22:43:50.785Z,26.67
2018-03-24T22:46:19.176Z,26.13
2018-03-24T22:48:47.441Z,26.70
2018-03-24T22:51:14.977Z,25.93
2018-03-24T22:53:42.484Z,25.33
2018-03-24T22:56:10.081Z,26.30
2018-03-24T22:58:37.592Z,25.53
2018-03-24T23:01:05.168Z,25.53
2018-03-24T23:03:32.686Z,25.73
2018-03-24T23:06:00.967Z,23.77
2018-03-24T23:08:29.270Z,24.77
2018-03-24T23:10:56.967Z,24.10
2018-03-24T23:13:24.495Z,24.40
2018-03-24T23:15:52.794Z,24.10
2018-03-24T23:18:21.112Z,24.77
2018-03-24T23:20:48.617Z,24.83
2018-03-24T23:23:16.171Z,23.27
2018-03-24T23:25:43.699Z,25.50
2018-03-24T23:28:12.082Z,23.87
2018-03-24T23:30:40.387Z,24.70
2018-03-24T23:33:07.926Z,23.27
2018-03-24T23:35:35.459Z,24.90
2018-03-24T23:38:03.068Z,25.30
2018-03-24T23:40:30.567Z,25.57
2018-03-24T23:42:58.252Z,26.50
2018-03-24T23:45:25.766Z,26.97
2018-03-24T23:47:53.427Z,26.87
2018-03-24T23:50:21.010Z,26.50
2018-03-24T23:52:48.634Z,25.60
2018-03-24T23:55:16.127Z,27.00
2018-03-24T23:57:43.750Z,26.70
